sensor_id;sensor_type;location;lat;lon;timestamp;temperature;humidity
21355;DHT22;10835;50.148;19.760;2023-02-21T00:02:00;16.30;56.40
21355;DHT22;10835;50.148;19.760;2023-02-21T00:04:46;16.10;56.50
21355;DHT22;10835;50.148;19.760;2023-02-21T00:07:32;16.30;56.50
21355;DHT22;10835;50.148;19.760;2023-02-21T00:10:19;16.60;55.80
21355;DHT22;10835;50.148;19.760;2023-02-21T00:13:05;16.60;55.40
21355;DHT22;10835;50.148;19.760;2023-02-21T00:15:52;16.80;55.20
21355;DHT22;10835;50.148;19.760;2023-02-21T00:18:38;16.80;55.00
21355;DHT22;10835;50.148;19.760;2023-02-21T00:21:26;16.90;54.70
21355;DHT22;10835;50.148;19.760;2023-02-21T00:24:13;16.70;55.10
21355;DHT22;10835;50.148;19.760;2023-02-21T00:27:00;16.40;55.70
21355;DHT22;10835;50.148;19.760;2023-02-21T00:29:46;16.10;57.10
21355;DHT22;10835;50.148;19.760;2023-02-21T00:32:32;15.40;59.20
21355;DHT22;10835;50.148;19.760;2023-02-21T00:35:18;15.20;60.00
21355;DHT22;10835;50.148;19.760;2023-02-21T00:38:04;15.30;60.20
21355;DHT22;10835;50.148;19.760;2023-02-21T00:40:52;15.70;59.40
21355;DHT22;10835;50.148;19.760;2023-02-21T00:43:40;15.90;58.50
21355;DHT22;10835;50.148;19.760;2023-02-21T00:46:26;15.90;58.40
21355;DHT22;10835;50.148;19.760;2023-02-21T00:49:11;16.00;57.80
21355;DHT22;10835;50.148;19.760;2023-02-21T00:51:57;16.00;57.80
21355;DHT22;10835;50.148;19.760;2023-02-21T00:54:45;16.20;56.80
21355;DHT22;10835;50.148;19.760;2023-02-21T00:57:30;15.90;57.10
21355;DHT22;10835;50.148;19.760;2023-02-21T01:00:19;16.10;57.20
21355;DHT22;10835;50.148;19.760;2023-02-21T01:03:05;16.10;56.70
21355;DHT22;10835;50.148;19.760;2023-02-21T01:05:52;16.20;56.70
21355;DHT22;10835;50.148;19.760;2023-02-21T01:08:40;16.60;55.90
21355;DHT22;10835;50.148;19.760;2023-02-21T01:11:26;16.80;55.10
21355;DHT22;10835;50.148;19.760;2023-02-21T01:14:11;17.30;53.80
21355;DHT22;10835;50.148;19.760;2023-02-21T01:17:00;17.30;53.50
21355;DHT22;10835;50.148;19.760;2023-02-21T01:19:48;16.90;54.20
21355;DHT22;10835;50.148;19.760;2023-02-21T01:22:34;16.60;55.00
21355;DHT22;10835;50.148;19.760;2023-02-21T01:25:20;16.10;56.30
21355;DHT22;10835;50.148;19.760;2023-02-21T01:28:06;16.10;56.70
21355;DHT22;10835;50.148;19.760;2023-02-21T01:30:53;16.20;56.90
21355;DHT22;10835;50.148;19.760;2023-02-21T01:33:41;15.90;57.60
21355;DHT22;10835;50.148;19.760;2023-02-21T01:36:27;15.60;58.60
21355;DHT22;10835;50.148;19.760;2023-02-21T01:39:13;15.60;58.70
21355;DHT22;10835;50.148;19.760;2023-02-21T01:41:59;15.70;58.50
21355;DHT22;10835;50.148;19.760;2023-02-21T01:44:46;15.70;58.60
21355;DHT22;10835;50.148;19.760;2023-02-21T01:47:33;15.60;58.80
21355;DHT22;10835;50.148;19.760;2023-02-21T01:50:22;15.70;59.10
21355;DHT22;10835;50.148;19.760;2023-02-21T01:53:13;16.00;58.00
21355;DHT22;10835;50.148;19.760;2023-02-21T01:56:00;15.80;58.30
21355;DHT22;10835;50.148;19.760;2023-02-21T01:58:48;15.60;59.10
21355;DHT22;10835;50.148;19.760;2023-02-21T02:01:41;16.00;58.80
21355;DHT22;10835;50.148;19.760;2023-02-21T02:04:31;16.20;58.10
21355;DHT22;10835;50.148;19.760;2023-02-21T02:07:19;16.20;58.20
21355;DHT22;10835;50.148;19.760;2023-02-21T02:10:11;16.00;59.00
21355;DHT22;10835;50.148;19.760;2023-02-21T02:13:14;16.40;58.20
21355;DHT22;10835;50.148;19.760;2023-02-21T02:15:51;16.70;57.50
21355;DHT22;10835;50.148;19.760;2023-02-21T02:22:05;16.80;57.50
21355;DHT22;10835;50.148;19.760;2023-02-21T02:24:57;16.80;57.80
21355;DHT22;10835;50.148;19.760;2023-02-21T02:27:59;16.90;58.20
21355;DHT22;10835;50.148;19.760;2023-02-21T02:31:01;16.50;59.40
21355;DHT22;10835;50.148;19.760;2023-02-21T02:34:05;16.00;61.70
21355;DHT22;10835;50.148;19.760;2023-02-21T02:36:40;16.50;62.00
21355;DHT22;10835;50.148;19.760;2023-02-21T02:39:18;16.70;61.60
21355;DHT22;10835;50.148;19.760;2023-02-21T02:41:54;16.10;62.50
21355;DHT22;10835;50.148;19.760;2023-02-21T02:44:28;15.80;63.70
21355;DHT22;10835;50.148;19.760;2023-02-21T02:47:00;15.60;65.00
21355;DHT22;10835;50.148;19.760;2023-02-21T02:49:30;15.40;65.80
21355;DHT22;10835;50.148;19.760;2023-02-21T02:52:04;15.30;66.60
21355;DHT22;10835;50.148;19.760;2023-02-21T02:54:33;15.50;66.90
21355;DHT22;10835;50.148;19.760;2023-02-21T02:57:06;15.60;66.60
21355;DHT22;10835;50.148;19.760;2023-02-21T02:59:41;15.30;66.90
21355;DHT22;10835;50.148;19.760;2023-02-21T03:02:25;15.30;67.20
21355;DHT22;10835;50.148;19.760;2023-02-21T03:05:12;15.20;67.60
21355;DHT22;10835;50.148;19.760;2023-02-21T03:07:49;14.80;68.50
21355;DHT22;10835;50.148;19.760;2023-02-21T03:10:31;14.80;68.90
21355;DHT22;10835;50.148;19.760;2023-02-21T03:13:11;14.80;69.20
21355;DHT22;10835;50.148;19.760;2023-02-21T03:15:44;15.20;69.10
21355;DHT22;10835;50.148;19.760;2023-02-21T03:18:20;15.20;68.10
21355;DHT22;10835;50.148;19.760;2023-02-21T03:20:53;14.80;69.60
21355;DHT22;10835;50.148;19.760;2023-02-21T03:23:26;14.80;70.60
21355;DHT22;10835;50.148;19.760;2023-02-21T03:25:58;15.20;69.40
21355;DHT22;10835;50.148;19.760;2023-02-21T03:28:29;15.20;69.00
21355;DHT22;10835;50.148;19.760;2023-02-21T03:31:01;15.30;69.00
21355;DHT22;10835;50.148;19.760;2023-02-21T03:33:31;15.10;69.30
21355;DHT22;10835;50.148;19.760;2023-02-21T03:36:10;15.30;69.50
21355;DHT22;10835;50.148;19.760;2023-02-21T03:38:41;15.50;68.70
21355;DHT22;10835;50.148;19.760;2023-02-21T03:41:11;15.20;70.00
21355;DHT22;10835;50.148;19.760;2023-02-21T03:43:43;14.80;71.00
21355;DHT22;10835;50.148;19.760;2023-02-21T03:46:11;14.70;71.60
21355;DHT22;10835;50.148;19.760;2023-02-21T03:48:40;14.90;71.00
21355;DHT22;10835;50.148;19.760;2023-02-21T03:51:15;14.80;70.80
21355;DHT22;10835;50.148;19.760;2023-02-21T03:53:45;14.90;71.00
21355;DHT22;10835;50.148;19.760;2023-02-21T03:56:16;15.10;70.50
21355;DHT22;10835;50.148;19.760;2023-02-21T03:59:01;15.00;70.10
21355;DHT22;10835;50.148;19.760;2023-02-21T04:01:30;14.80;70.50
21355;DHT22;10835;50.148;19.760;2023-02-21T04:03:59;14.50;71.50
21355;DHT22;10835;50.148;19.760;2023-02-21T04:06:28;14.50;72.30
21355;DHT22;10835;50.148;19.760;2023-02-21T04:09:01;14.60;72.00
21355;DHT22;10835;50.148;19.760;2023-02-21T04:11:31;14.50;72.50
21355;DHT22;10835;50.148;19.760;2023-02-21T04:14:00;14.40;72.70
21355;DHT22;10835;50.148;19.760;2023-02-21T04:16:30;14.60;72.40
21355;DHT22;10835;50.148;19.760;2023-02-21T04:18:59;15.00;71.10
21355;DHT22;10835;50.148;19.760;2023-02-21T04:21:28;15.10;71.20
21355;DHT22;10835;50.148;19.760;2023-02-21T04:23:59;14.80;71.40
21355;DHT22;10835;50.148;19.760;2023-02-21T04:26:30;15.10;71.10
21355;DHT22;10835;50.148;19.760;2023-02-21T04:29:01;14.80;71.80
21355;DHT22;10835;50.148;19.760;2023-02-21T04:31:30;14.60;72.50
21355;DHT22;10835;50.148;19.760;2023-02-21T04:34:04;14.80;72.70
21355;DHT22;10835;50.148;19.760;2023-02-21T04:36:40;14.60;72.70
21355;DHT22;10835;50.148;19.760;2023-02-21T04:39:10;14.90;72.70
21355;DHT22;10835;50.148;19.760;2023-02-21T04:41:39;14.60;72.40
21355;DHT22;10835;50.148;19.760;2023-02-21T04:44:08;14.60;73.50
21355;DHT22;10835;50.148;19.760;2023-02-21T04:46:38;14.90;73.00
21355;DHT22;10835;50.148;19.760;2023-02-21T04:49:08;15.00;72.10
21355;DHT22;10835;50.148;19.760;2023-02-21T04:51:40;15.00;72.00
21355;DHT22;10835;50.148;19.760;2023-02-21T04:54:19;15.20;71.40
21355;DHT22;10835;50.148;19.760;2023-02-21T04:56:50;15.20;71.40
21355;DHT22;10835;50.148;19.760;2023-02-21T04:59:18;15.00;71.70
21355;DHT22;10835;50.148;19.760;2023-02-21T05:01:46;14.70;73.50
21355;DHT22;10835;50.148;19.760;2023-02-21T05:04:15;14.50;73.40
21355;DHT22;10835;50.148;19.760;2023-02-21T05:06:43;14.70;73.40
21355;DHT22;10835;50.148;19.760;2023-02-21T05:09:11;14.70;73.00
21355;DHT22;10835;50.148;19.760;2023-02-21T05:11:41;14.50;73.50
21355;DHT22;10835;50.148;19.760;2023-02-21T05:14:09;14.40;73.50
21355;DHT22;10835;50.148;19.760;2023-02-21T05:16:39;14.60;73.70
21355;DHT22;10835;50.148;19.760;2023-02-21T05:19:08;14.80;72.70
21355;DHT22;10835;50.148;19.760;2023-02-21T05:21:36;15.00;72.70
21355;DHT22;10835;50.148;19.760;2023-02-21T05:24:05;15.10;71.80
21355;DHT22;10835;50.148;19.760;2023-02-21T05:26:37;15.00;71.50
21355;DHT22;10835;50.148;19.760;2023-02-21T05:29:06;15.10;71.40
21355;DHT22;10835;50.148;19.760;2023-02-21T05:31:35;15.10;71.60
21355;DHT22;10835;50.148;19.760;2023-02-21T05:34:03;14.90;72.00
21355;DHT22;10835;50.148;19.760;2023-02-21T05:36:31;14.80;72.60
21355;DHT22;10835;50.148;19.760;2023-02-21T05:38:59;14.90;72.60
21355;DHT22;10835;50.148;19.760;2023-02-21T05:41:28;15.10;72.20
21355;DHT22;10835;50.148;19.760;2023-02-21T05:43:56;14.90;72.10
21355;DHT22;10835;50.148;19.760;2023-02-21T05:46:29;14.70;72.60
21355;DHT22;10835;50.148;19.760;2023-02-21T05:48:59;14.80;72.80
21355;DHT22;10835;50.148;19.760;2023-02-21T05:51:33;14.80;72.90
21355;DHT22;10835;50.148;19.760;2023-02-21T05:54:01;14.70;73.80
21355;DHT22;10835;50.148;19.760;2023-02-21T05:56:30;14.60;73.50
21355;DHT22;10835;50.148;19.760;2023-02-21T05:58:58;14.50;73.80
21355;DHT22;10835;50.148;19.760;2023-02-21T06:01:27;14.90;72.90
21355;DHT22;10835;50.148;19.760;2023-02-21T06:03:56;15.10;72.20
21355;DHT22;10835;50.148;19.760;2023-02-21T06:06:24;15.20;71.70
21355;DHT22;10835;50.148;19.760;2023-02-21T06:08:53;15.40;71.30
21355;DHT22;10835;50.148;19.760;2023-02-21T06:11:23;15.40;70.70
21355;DHT22;10835;50.148;19.760;2023-02-21T06:13:52;15.90;69.60
21355;DHT22;10835;50.148;19.760;2023-02-21T06:16:21;15.70;69.40
21355;DHT22;10835;50.148;19.760;2023-02-21T06:18:51;15.60;69.20
21355;DHT22;10835;50.148;19.760;2023-02-21T06:21:20;15.70;69.70
21355;DHT22;10835;50.148;19.760;2023-02-21T06:23:48;15.60;69.60
21355;DHT22;10835;50.148;19.760;2023-02-21T06:26:17;15.60;69.40
21355;DHT22;10835;50.148;19.760;2023-02-21T06:28:47;15.30;70.30
21355;DHT22;10835;50.148;19.760;2023-02-21T06:31:15;15.30;70.40
21355;DHT22;10835;50.148;19.760;2023-02-21T06:33:44;15.40;70.10
21355;DHT22;10835;50.148;19.760;2023-02-21T06:36:16;15.30;70.20
21355;DHT22;10835;50.148;19.760;2023-02-21T06:38:46;15.80;69.50
21355;DHT22;10835;50.148;19.760;2023-02-21T06:41:15;15.60;69.30
21355;DHT22;10835;50.148;19.760;2023-02-21T06:43:43;15.50;69.60
21355;DHT22;10835;50.148;19.760;2023-02-21T06:46:15;15.60;69.90
21355;DHT22;10835;50.148;19.760;2023-02-21T06:48:43;15.80;68.60
21355;DHT22;10835;50.148;19.760;2023-02-21T06:51:12;15.70;68.50
21355;DHT22;10835;50.148;19.760;2023-02-21T06:53:43;15.40;69.80
21355;DHT22;10835;50.148;19.760;2023-02-21T06:56:11;15.60;69.60
21355;DHT22;10835;50.148;19.760;2023-02-21T06:58:41;15.40;69.40
21355;DHT22;10835;50.148;19.760;2023-02-21T07:01:09;15.50;69.70
21355;DHT22;10835;50.148;19.760;2023-02-21T07:03:38;15.60;69.00
21355;DHT22;10835;50.148;19.760;2023-02-21T07:06:10;15.50;69.70
21355;DHT22;10835;50.148;19.760;2023-02-21T07:08:38;15.70;68.60
21355;DHT22;10835;50.148;19.760;2023-02-21T07:11:08;15.20;70.10
21355;DHT22;10835;50.148;19.760;2023-02-21T07:13:36;15.10;71.00
21355;DHT22;10835;50.148;19.760;2023-02-21T07:16:05;15.00;71.10
21355;DHT22;10835;50.148;19.760;2023-02-21T07:18:33;15.20;71.40
21355;DHT22;10835;50.148;19.760;2023-02-21T07:21:02;15.30;70.60
21355;DHT22;10835;50.148;19.760;2023-02-21T07:23:30;15.50;70.10
21355;DHT22;10835;50.148;19.760;2023-02-21T07:25:58;15.20;70.70
21355;DHT22;10835;50.148;19.760;2023-02-21T07:28:29;15.00;71.50
21355;DHT22;10835;50.148;19.760;2023-02-21T07:30:58;15.50;69.80
21355;DHT22;10835;50.148;19.760;2023-02-21T07:33:27;15.70;70.20
21355;DHT22;10835;50.148;19.760;2023-02-21T07:35:56;15.90;68.60
21355;DHT22;10835;50.148;19.760;2023-02-21T07:38:25;16.20;67.40
21355;DHT22;10835;50.148;19.760;2023-02-21T07:40:54;16.10;67.30
21355;DHT22;10835;50.148;19.760;2023-02-21T07:43:23;16.00;67.50
21355;DHT22;10835;50.148;19.760;2023-02-21T07:45:53;16.00;67.60
21355;DHT22;10835;50.148;19.760;2023-02-21T07:48:22;15.90;68.00
21355;DHT22;10835;50.148;19.760;2023-02-21T07:50:51;15.80;68.50
21355;DHT22;10835;50.148;19.760;2023-02-21T07:53:19;16.00;69.00
21355;DHT22;10835;50.148;19.760;2023-02-21T07:55:47;16.00;67.70
21355;DHT22;10835;50.148;19.760;2023-02-21T07:58:16;16.10;68.20
21355;DHT22;10835;50.148;19.760;2023-02-21T08:00:47;15.90;68.40
21355;DHT22;10835;50.148;19.760;2023-02-21T08:03:17;15.80;68.50
21355;DHT22;10835;50.148;19.760;2023-02-21T08:05:47;15.90;68.20
21355;DHT22;10835;50.148;19.760;2023-02-21T08:08:16;15.80;68.90
21355;DHT22;10835;50.148;19.760;2023-02-21T08:10:44;15.90;69.20
21355;DHT22;10835;50.148;19.760;2023-02-21T08:13:12;16.00;68.30
21355;DHT22;10835;50.148;19.760;2023-02-21T08:15:40;16.00;68.70
21355;DHT22;10835;50.148;19.760;2023-02-21T08:18:15;16.10;67.90
21355;DHT22;10835;50.148;19.760;2023-02-21T08:20:46;16.10;67.40
21355;DHT22;10835;50.148;19.760;2023-02-21T08:23:14;16.50;67.10
21355;DHT22;10835;50.148;19.760;2023-02-21T08:25:46;16.70;65.50
21355;DHT22;10835;50.148;19.760;2023-02-21T08:28:15;16.40;66.10
21355;DHT22;10835;50.148;19.760;2023-02-21T08:30:43;16.60;66.30
21355;DHT22;10835;50.148;19.760;2023-02-21T08:33:11;16.00;66.90
21355;DHT22;10835;50.148;19.760;2023-02-21T08:35:41;15.50;68.50
21355;DHT22;10835;50.148;19.760;2023-02-21T08:38:09;15.40;69.10
21355;DHT22;10835;50.148;19.760;2023-02-21T08:40:37;15.60;68.80
21355;DHT22;10835;50.148;19.760;2023-02-21T08:43:06;15.40;69.60
21355;DHT22;10835;50.148;19.760;2023-02-21T08:45:34;15.80;68.50
21355;DHT22;10835;50.148;19.760;2023-02-21T08:48:03;15.90;67.70
21355;DHT22;10835;50.148;19.760;2023-02-21T08:50:31;15.90;67.30
21355;DHT22;10835;50.148;19.760;2023-02-21T08:53:01;15.90;67.50
21355;DHT22;10835;50.148;19.760;2023-02-21T08:55:29;16.00;67.20
21355;DHT22;10835;50.148;19.760;2023-02-21T08:57:57;15.60;68.70
21355;DHT22;10835;50.148;19.760;2023-02-21T09:00:26;15.50;68.50
21355;DHT22;10835;50.148;19.760;2023-02-21T09:02:55;15.60;68.40
21355;DHT22;10835;50.148;19.760;2023-02-21T09:05:26;15.80;68.00
21355;DHT22;10835;50.148;19.760;2023-02-21T09:07:56;15.90;67.20
21355;DHT22;10835;50.148;19.760;2023-02-21T09:10:30;15.50;68.20
21355;DHT22;10835;50.148;19.760;2023-02-21T09:13:03;15.00;69.70
21355;DHT22;10835;50.148;19.760;2023-02-21T09:15:31;14.90;70.60
21355;DHT22;10835;50.148;19.760;2023-02-21T09:17:59;15.00;71.00
21355;DHT22;10835;50.148;19.760;2023-02-21T09:20:27;15.10;70.80
21355;DHT22;10835;50.148;19.760;2023-02-21T09:22:56;14.90;71.00
21355;DHT22;10835;50.148;19.760;2023-02-21T09:25:24;15.40;70.40
21355;DHT22;10835;50.148;19.760;2023-02-21T09:27:53;15.80;69.00
21355;DHT22;10835;50.148;19.760;2023-02-21T09:30:26;16.10;67.60
21355;DHT22;10835;50.148;19.760;2023-02-21T09:32:56;16.40;66.70
21355;DHT22;10835;50.148;19.760;2023-02-21T09:35:24;16.50;65.70
21355;DHT22;10835;50.148;19.760;2023-02-21T09:37:52;16.30;65.90
21355;DHT22;10835;50.148;19.760;2023-02-21T09:40:29;16.60;66.10
21355;DHT22;10835;50.148;19.760;2023-02-21T09:43:02;16.50;65.10
21355;DHT22;10835;50.148;19.760;2023-02-21T09:45:32;15.90;67.20
21355;DHT22;10835;50.148;19.760;2023-02-21T09:48:06;16.10;68.00
21355;DHT22;10835;50.148;19.760;2023-02-21T09:50:42;16.30;67.00
21355;DHT22;10835;50.148;19.760;2023-02-21T09:53:14;16.20;66.60
21355;DHT22;10835;50.148;19.760;2023-02-21T09:55:43;15.90;67.60
21355;DHT22;10835;50.148;19.760;2023-02-21T09:58:16;15.30;69.40
21355;DHT22;10835;50.148;19.760;2023-02-21T10:00:44;15.20;69.50
21355;DHT22;10835;50.148;19.760;2023-02-21T10:03:30;15.50;68.70
21355;DHT22;10835;50.148;19.760;2023-02-21T10:06:06;15.90;66.90
21355;DHT22;10835;50.148;19.760;2023-02-21T10:08:43;15.90;67.20
21355;DHT22;10835;50.148;19.760;2023-02-21T10:11:24;16.30;66.20
21355;DHT22;10835;50.148;19.760;2023-02-21T10:14:05;17.00;64.90
21355;DHT22;10835;50.148;19.760;2023-02-21T10:16:42;17.70;62.80
21355;DHT22;10835;50.148;19.760;2023-02-21T10:19:15;17.40;61.10
21355;DHT22;10835;50.148;19.760;2023-02-21T10:21:48;17.70;62.00
21355;DHT22;10835;50.148;19.760;2023-02-21T10:24:19;18.10;59.40
21355;DHT22;10835;50.148;19.760;2023-02-21T10:26:52;18.00;58.70
21355;DHT22;10835;50.148;19.760;2023-02-21T10:29:25;17.80;59.30
21355;DHT22;10835;50.148;19.760;2023-02-21T10:31:57;17.70;59.40
21355;DHT22;10835;50.148;19.760;2023-02-21T10:34:30;17.50;57.60
21355;DHT22;10835;50.148;19.760;2023-02-21T10:37:03;17.50;59.40
21355;DHT22;10835;50.148;19.760;2023-02-21T10:39:38;18.10;58.80
21355;DHT22;10835;50.148;19.760;2023-02-21T10:42:16;18.30;56.30
21355;DHT22;10835;50.148;19.760;2023-02-21T10:44:49;18.30;56.20
21355;DHT22;10835;50.148;19.760;2023-02-21T10:47:22;18.10;56.20
21355;DHT22;10835;50.148;19.760;2023-02-21T10:49:55;17.90;57.00
21355;DHT22;10835;50.148;19.760;2023-02-21T10:52:26;17.30;57.80
21355;DHT22;10835;50.148;19.760;2023-02-21T10:55:03;16.80;60.30
21355;DHT22;10835;50.148;19.760;2023-02-21T10:57:39;16.80;62.20
21355;DHT22;10835;50.148;19.760;2023-02-21T11:00:20;16.80;62.80
21355;DHT22;10835;50.148;19.760;2023-02-21T11:02:54;16.50;64.00
21355;DHT22;10835;50.148;19.760;2023-02-21T11:05:26;16.40;64.90
21355;DHT22;10835;50.148;19.760;2023-02-21T11:07:58;16.70;64.60
21355;DHT22;10835;50.148;19.760;2023-02-21T11:10:30;16.60;64.40
21355;DHT22;10835;50.148;19.760;2023-02-21T11:13:13;16.50;65.20
21355;DHT22;10835;50.148;19.760;2023-02-21T11:15:44;16.80;65.50
21355;DHT22;10835;50.148;19.760;2023-02-21T11:18:16;17.00;64.60
21355;DHT22;10835;50.148;19.760;2023-02-21T11:20:45;16.80;65.50
21355;DHT22;10835;50.148;19.760;2023-02-21T11:23:22;17.00;65.60
21355;DHT22;10835;50.148;19.760;2023-02-21T11:25:57;17.30;64.90
21355;DHT22;10835;50.148;19.760;2023-02-21T11:28:26;17.40;64.50
21355;DHT22;10835;50.148;19.760;2023-02-21T11:31:14;17.20;64.90
21355;DHT22;10835;50.148;19.760;2023-02-21T11:33:50;17.30;65.00
21355;DHT22;10835;50.148;19.760;2023-02-21T11:36:20;17.10;65.00
21355;DHT22;10835;50.148;19.760;2023-02-21T11:39:05;16.60;66.50
21355;DHT22;10835;50.148;19.760;2023-02-21T11:41:45;16.80;66.60
21355;DHT22;10835;50.148;19.760;2023-02-21T11:44:25;17.20;66.20
21355;DHT22;10835;50.148;19.760;2023-02-21T11:47:06;18.00;65.20
21355;DHT22;10835;50.148;19.760;2023-02-21T11:49:46;18.20;63.10
21355;DHT22;10835;50.148;19.760;2023-02-21T11:52:22;17.60;63.40
21355;DHT22;10835;50.148;19.760;2023-02-21T11:54:52;17.30;65.40
21355;DHT22;10835;50.148;19.760;2023-02-21T11:57:26;17.20;65.70
21355;DHT22;10835;50.148;19.760;2023-02-21T12:00:15;17.30;65.70
21355;DHT22;10835;50.148;19.760;2023-02-21T12:03:03;17.10;65.50
21355;DHT22;10835;50.148;19.760;2023-02-21T12:05:49;17.30;65.00
21355;DHT22;10835;50.148;19.760;2023-02-21T12:08:36;17.60;64.50
21355;DHT22;10835;50.148;19.760;2023-02-21T12:11:21;17.60;64.10
21355;DHT22;10835;50.148;19.760;2023-02-21T12:14:01;17.80;64.10
21355;DHT22;10835;50.148;19.760;2023-02-21T12:16:40;17.40;63.80
21355;DHT22;10835;50.148;19.760;2023-02-21T12:19:31;17.50;63.70
21355;DHT22;10835;50.148;19.760;2023-02-21T12:22:14;17.20;63.30
21355;DHT22;10835;50.148;19.760;2023-02-21T12:24:54;17.10;64.50
21355;DHT22;10835;50.148;19.760;2023-02-21T12:27:32;17.00;65.90
21355;DHT22;10835;50.148;19.760;2023-02-21T12:30:17;17.00;64.90
21355;DHT22;10835;50.148;19.760;2023-02-21T12:32:53;17.50;65.10
21355;DHT22;10835;50.148;19.760;2023-02-21T12:35:50;17.60;64.10
21355;DHT22;10835;50.148;19.760;2023-02-21T12:38:26;17.40;65.00
21355;DHT22;10835;50.148;19.760;2023-02-21T12:41:05;17.50;64.80
21355;DHT22;10835;50.148;19.760;2023-02-21T12:43:45;17.90;63.80
21355;DHT22;10835;50.148;19.760;2023-02-21T12:46:22;18.00;63.70
21355;DHT22;10835;50.148;19.760;2023-02-21T12:48:57;18.10;61.20
21355;DHT22;10835;50.148;19.760;2023-02-21T12:51:35;17.50;62.00
21355;DHT22;10835;50.148;19.760;2023-02-21T12:54:06;17.60;62.80
21355;DHT22;10835;50.148;19.760;2023-02-21T12:56:41;17.60;61.20
21355;DHT22;10835;50.148;19.760;2023-02-21T12:59:16;17.80;61.00
21355;DHT22;10835;50.148;19.760;2023-02-21T13:01:48;18.00;59.90
21355;DHT22;10835;50.148;19.760;2023-02-21T13:04:26;18.30;58.80
21355;DHT22;10835;50.148;19.760;2023-02-21T13:07:03;18.30;58.60
21355;DHT22;10835;50.148;19.760;2023-02-21T13:09:37;18.50;58.50
21355;DHT22;10835;50.148;19.760;2023-02-21T13:12:08;18.60;57.50
21355;DHT22;10835;50.148;19.760;2023-02-21T13:14:40;18.90;57.70
21355;DHT22;10835;50.148;19.760;2023-02-21T13:17:11;19.00;55.70
21355;DHT22;10835;50.148;19.760;2023-02-21T13:19:44;19.10;56.10
21355;DHT22;10835;50.148;19.760;2023-02-21T13:25:57;18.80;55.30
21355;DHT22;10835;50.148;19.760;2023-02-21T13:28:32;19.00;54.80
21355;DHT22;10835;50.148;19.760;2023-02-21T13:31:04;19.20;54.50
21355;DHT22;10835;50.148;19.760;2023-02-21T13:33:36;18.70;54.20
21355;DHT22;10835;50.148;19.760;2023-02-21T13:36:19;18.70;54.60
21355;DHT22;10835;50.148;19.760;2023-02-21T13:39:03;18.60;54.00
21355;DHT22;10835;50.148;19.760;2023-02-21T13:41:34;18.40;54.40
21355;DHT22;10835;50.148;19.760;2023-02-21T13:44:06;18.00;55.50
21355;DHT22;10835;50.148;19.760;2023-02-21T13:47:07;18.40;55.50
21355;DHT22;10835;50.148;19.760;2023-02-21T13:49:40;18.30;55.40
21355;DHT22;10835;50.148;19.760;2023-02-21T13:55:26;18.40;55.00
21355;DHT22;10835;50.148;19.760;2023-02-21T14:01:38;18.40;55.50
21355;DHT22;10835;50.148;19.760;2023-02-21T14:07:49;18.30;56.40
21355;DHT22;10835;50.148;19.760;2023-02-21T14:10:28;18.30;56.00
21355;DHT22;10835;50.148;19.760;2023-02-21T14:13:02;18.00;56.80
21355;DHT22;10835;50.148;19.760;2023-02-21T14:15:40;18.20;57.40
21355;DHT22;10835;50.148;19.760;2023-02-21T14:18:19;18.60;56.30
21355;DHT22;10835;50.148;19.760;2023-02-21T14:20:51;18.70;56.00
21355;DHT22;10835;50.148;19.760;2023-02-21T14:23:31;18.70;55.70
21355;DHT22;10835;50.148;19.760;2023-02-21T14:26:04;18.70;55.80
21355;DHT22;10835;50.148;19.760;2023-02-21T14:29:01;18.40;56.30
21355;DHT22;10835;50.148;19.760;2023-02-21T14:31:53;18.30;56.80
21355;DHT22;10835;50.148;19.760;2023-02-21T14:34:30;18.20;57.20
21355;DHT22;10835;50.148;19.760;2023-02-21T14:37:03;17.80;57.50
21355;DHT22;10835;50.148;19.760;2023-02-21T14:39:35;18.00;57.20
21355;DHT22;10835;50.148;19.760;2023-02-21T14:42:35;18.30;57.00
21355;DHT22;10835;50.148;19.760;2023-02-21T14:45:22;18.50;56.70
21355;DHT22;10835;50.148;19.760;2023-02-21T14:51:46;19.60;54.60
21355;DHT22;10835;50.148;19.760;2023-02-21T14:54:31;19.40;53.90
21355;DHT22;10835;50.148;19.760;2023-02-21T15:00:21;19.50;53.70
21355;DHT22;10835;50.148;19.760;2023-02-21T15:02:55;18.70;54.60
21355;DHT22;10835;50.148;19.760;2023-02-21T15:05:37;18.80;55.20
21355;DHT22;10835;50.148;19.760;2023-02-21T15:08:11;18.50;55.80
21355;DHT22;10835;50.148;19.760;2023-02-21T15:10:43;18.80;55.30
21355;DHT22;10835;50.148;19.760;2023-02-21T15:13:22;19.00;54.90
21355;DHT22;10835;50.148;19.760;2023-02-21T15:15:57;19.00;54.60
21355;DHT22;10835;50.148;19.760;2023-02-21T15:18:29;19.00;54.80
21355;DHT22;10835;50.148;19.760;2023-02-21T15:21:06;19.10;54.60
21355;DHT22;10835;50.148;19.760;2023-02-21T15:23:38;19.00;54.20
21355;DHT22;10835;50.148;19.760;2023-02-21T15:26:17;18.80;54.20
21355;DHT22;10835;50.148;19.760;2023-02-21T15:29:03;18.10;53.30
21355;DHT22;10835;50.148;19.760;2023-02-21T15:31:34;17.60;54.20
21355;DHT22;10835;50.148;19.760;2023-02-21T15:34:02;17.60;54.30
21355;DHT22;10835;50.148;19.760;2023-02-21T15:36:31;17.60;53.70
21355;DHT22;10835;50.148;19.760;2023-02-21T15:39:05;17.70;53.50
21355;DHT22;10835;50.148;19.760;2023-02-21T15:41:37;17.70;53.60
21355;DHT22;10835;50.148;19.760;2023-02-21T15:44:11;17.70;53.50
21355;DHT22;10835;50.148;19.760;2023-02-21T15:46:44;17.50;54.40
21355;DHT22;10835;50.148;19.760;2023-02-21T15:49:18;17.50;54.40
21355;DHT22;10835;50.148;19.760;2023-02-21T15:51:46;17.60;54.30
21355;DHT22;10835;50.148;19.760;2023-02-21T15:54:24;17.40;54.80
21355;DHT22;10835;50.148;19.760;2023-02-21T15:57:20;17.00;56.10
21355;DHT22;10835;50.148;19.760;2023-02-21T16:00:16;17.40;55.40
21355;DHT22;10835;50.148;19.760;2023-02-21T16:02:45;17.40;55.60
21355;DHT22;10835;50.148;19.760;2023-02-21T16:05:25;17.10;56.00
21355;DHT22;10835;50.148;19.760;2023-02-21T16:07:59;17.20;56.40
21355;DHT22;10835;50.148;19.760;2023-02-21T16:10:31;17.30;56.20
21355;DHT22;10835;50.148;19.760;2023-02-21T16:13:00;17.60;55.60
21355;DHT22;10835;50.148;19.760;2023-02-21T16:15:31;17.40;56.20
21355;DHT22;10835;50.148;19.760;2023-02-21T16:18:05;17.70;55.20
21355;DHT22;10835;50.148;19.760;2023-02-21T16:20:36;17.60;54.80
21355;DHT22;10835;50.148;19.760;2023-02-21T16:23:22;17.10;55.70
21355;DHT22;10835;50.148;19.760;2023-02-21T16:25:55;16.70;55.90
21355;DHT22;10835;50.148;19.760;2023-02-21T16:28:23;16.90;56.40
21355;DHT22;10835;50.148;19.760;2023-02-21T16:30:52;17.60;55.10